Wetterdaten: aktuell Donnerstag, 24.09.2020 05:10
Datum Zeit Temp. Feuchte Luftdruck Regen Wind Richtung Richtung Sonnenschein UV Solar Windchill Windben
24.09.2020 05:10 13.7 C 96 % 1007.7 hPa 0.0 mm 1.9 km/h N-NO 28 0 min 0.0 UV-I 0.0 W/m 13.7 C 4.8 km/h
24.09.2020 05:00 13.7 C 96 % 1007.7 hPa 0.0 mm 1.8 km/h N-NO 28 0 min 0.0 UV-I 0.0 W/m 13.7 C 4.8 km/h
24.09.2020 04:50 13.7 C 96 % 1007.7 hPa 0.0 mm 1.7 km/h N-NO 29 0 min 0.0 UV-I 0.0 W/m 13.7 C 4.8 km/h
24.09.2020 04:40 13.6 C 96 % 1007.6 hPa 0.2 mm 0.0 km/h N-NO 29 0 min 0.0 UV-I 0.0 W/m 13.6 C 0.0 km/h
24.09.2020 04:30 13.5 C 96 % 1007.7 hPa 0.0 mm 0.3 km/h N-NO 29 0 min 0.0 UV-I 0.0 W/m 13.5 C 3.2 km/h
24.09.2020 04:20 13.4 C 96 % 1007.6 hPa 0.0 mm 0.1 km/h N-NO 30 0 min 0.0 UV-I 0.0 W/m 13.4 C 1.6 km/h
24.09.2020 04:10 13.3 C 96 % 1007.6 hPa 0.0 mm 0.1 km/h N-NO 30 0 min 0.0 UV-I 0.0 W/m 13.3 C 1.6 km/h
24.09.2020 04:00 13.3 C 96 % 1007.4 hPa 0.0 mm 0.1 km/h N-NO 30 0 min 0.0 UV-I 0.0 W/m 13.3 C 1.6 km/h
24.09.2020 03:50 13.3 C 96 % 1007.3 hPa 0.0 mm 0.0 km/h N-NO 30 0 min 0.0 UV-I 0.0 W/m 13.3 C 1.6 km/h
24.09.2020 03:40 13.1 C 96 % 1007.3 hPa 0.0 mm 0.8 km/h N-NO 30 0 min 0.0 UV-I 0.0 W/m 13.1 C 3.2 km/h
24.09.2020 03:30 13.0 C 96 % 1007.4 hPa 0.0 mm 1.4 km/h N-NO 30 0 min 0.0 UV-I 0.0 W/m 13.0 C 3.2 km/h
24.09.2020 03:20 13.0 C 96 % 1007.3 hPa 0.0 mm 0.4 km/h N-NO 30 0 min 0.0 UV-I 0.0 W/m 13.0 C 1.6 km/h
24.09.2020 03:10 12.9 C 96 % 1007.3 hPa 0.0 mm 0.9 km/h N-NO 30 0 min 0.0 UV-I 0.0 W/m 12.9 C 4.8 km/h
24.09.2020 03:00 12.7 C 95 % 1007.4 hPa 0.0 mm 1.2 km/h N-NO 29 0 min 0.0 UV-I 0.0 W/m 12.7 C 3.2 km/h
24.09.2020 02:50 12.9 C 95 % 1007.4 hPa 0.0 mm 0.2 km/h N-NO 29 0 min 0.0 UV-I 0.0 W/m 12.9 C 1.6 km/h
24.09.2020 02:40 12.9 C 96 % 1007.4 hPa 0.0 mm 1.7 km/h N-NO 29 0 min 0.0 UV-I 0.0 W/m 12.9 C 4.8 km/h
24.09.2020 02:30 12.7 C 95 % 1007.4 hPa 0.0 mm 0.0 km/h N-NO 29 0 min 0.0 UV-I 0.0 W/m 12.7 C 0.0 km/h
24.09.2020 02:20 12.9 C 95 % 1007.3 hPa 0.0 mm 0.0 km/h N-NO 29 0 min 0.0 UV-I 0.0 W/m 12.9 C 0.0 km/h
24.09.2020 02:10 13.0 C 95 % 1007.2 hPa 0.0 mm 0.0 km/h N-NO 29 0 min 0.0 UV-I 0.0 W/m 13.0 C 0.0 km/h
24.09.2020 02:00 13.2 C 95 % 1007.1 hPa 0.0 mm 0.0 km/h N-NO 29 0 min 0.0 UV-I 0.0 W/m 13.2 C 0.0 km/h
24.09.2020 01:50 13.3 C 95 % 1007.2 hPa 0.0 mm 0.0 km/h N-NO 29 0 min 0.0 UV-I 0.0 W/m 13.3 C 0.0 km/h
24.09.2020 01:40 13.4 C 95 % 1007.2 hPa 0.0 mm 0.0 km/h N-NO 29 0 min 0.0 UV-I 0.0 W/m 13.4 C 0.0 km/h
24.09.2020 01:30 13.4 C 95 % 1007.3 hPa 0.0 mm 0.0 km/h N-NO 29 0 min 0.0 UV-I 0.0 W/m 13.4 C 0.0 km/h
24.09.2020 01:20 13.6 C 95 % 1007.2 hPa 0.0 mm 1.3 km/h N-NO 29 0 min 0.0 UV-I 0.0 W/m 13.6 C 4.8 km/h
24.09.2020 01:10 13.2 C 95 % 1007.3 hPa 0.0 mm 0.2 km/h N-NO 21 0 min 0.0 UV-I 0.0 W/m 13.2 C 3.2 km/h
24.09.2020 01:00 13.2 C 95 % 1007.3 hPa 0.0 mm 0.5 km/h N-NO 20 0 min 0.0 UV-I 0.0 W/m 13.2 C 3.2 km/h
24.09.2020 00:50 13.0 C 95 % 1007.3 hPa 0.0 mm 0.4 km/h N-NO 20 0 min 0.0 UV-I 0.0 W/m 13.0 C 3.2 km/h
24.09.2020 00:40 13.1 C 95 % 1007.4 hPa 0.0 mm 1.7 km/h N-NO 20 0 min 0.0 UV-I 0.0 W/m 13.1 C 3.2 km/h
24.09.2020 00:30 13.3 C 95 % 1007.5 hPa 0.0 mm 1.6 km/h N-NO 20 0 min 0.0 UV-I 0.0 W/m 13.3 C 4.8 km/h
24.09.2020 00:20 13.5 C 95 % 1007.5 hPa 0.0 mm 0.0 km/h N-NW 329 0 min 0.0 UV-I 0.0 W/m 13.5 C 0.0 km/h
24.09.2020 00:10 13.3 C 95 % 1007.6 hPa 0.0 mm 0.0 km/h N-NW 329 0 min 0.0 UV-I 0.0 W/m 13.3 C 0.0 km/h
24.09.2020 00:00 13.3 C 94 % 1007.5 hPa 0.0 mm 0.2 km/h N-NW 329 0 min 0.0 UV-I 0.0 W/m 13.3 C 1.6 km/h
23.09.2020 23:50 13.3 C 95 % 1007.4 hPa 0.0 mm 0.7 km/h N-NW 329 0 min 0.0 UV-I 0.0 W/m 13.3 C 3.2 km/h
23.09.2020 23:40 13.1 C 94 % 1007.4 hPa 0.0 mm 0.0 km/h N-NW 329 0 min 0.0 UV-I 0.0 W/m 13.1 C 0.0 km/h
23.09.2020 23:30 13.3 C 94 % 1007.4 hPa 0.0 mm 0.5 km/h N-NW 329 0 min 0.0 UV-I 0.0 W/m 13.3 C 3.2 km/h
23.09.2020 23:20 13.3 C 94 % 1007.5 hPa 0.0 mm 1.5 km/h N-NW 329 0 min 0.0 UV-I 0.0 W/m 13.3 C 4.8 km/h
23.09.2020 23:10 13.3 C 94 % 1007.4 hPa 0.0 mm 1.2 km/h N-NW 329 0 min 0.0 UV-I 0.0 W/m 13.3 C 6.4 km/h
23.09.2020 23:00 13.6 C 94 % 1007.4 hPa 0.0 mm 1.1 km/h O-NO 65 0 min 0.0 UV-I 0.0 W/m 13.6 C 3.2 km/h
23.09.2020 22:50 13.4 C 94 % 1007.3 hPa 0.0 mm 1.4 km/h O-NO 65 0 min 0.0 UV-I 0.0 W/m 13.4 C 6.4 km/h
23.09.2020 22:40 13.4 C 94 % 1007.5 hPa 0.0 mm 0.0 km/h O-NO 65 0 min 0.0 UV-I 0.0 W/m 13.4 C 0.0 km/h
23.09.2020 22:30 13.4 C 94 % 1007.5 hPa 0.0 mm 0.0 km/h O-NO 65 0 min 0.0 UV-I 0.0 W/m 13.4 C 0.0 km/h
23.09.2020 22:20 13.7 C 93 % 1007.2 hPa 0.0 mm 0.0 km/h O-NO 65 0 min 0.0 UV-I 0.0 W/m 13.7 C 0.0 km/h
23.09.2020 22:10 13.9 C 93 % 1007.3 hPa 0.0 mm 0.0 km/h O-NO 65 0 min 0.0 UV-I 0.0 W/m 13.9 C 0.0 km/h
23.09.2020 22:00 13.9 C 93 % 1007.2 hPa 0.0 mm 0.0 km/h O-NO 65 0 min 0.0 UV-I 0.0 W/m 13.9 C 0.0 km/h
23.09.2020 21:50 14.1 C 93 % 1007.5 hPa 0.0 mm 0.0 km/h O-NO 65 0 min 0.0 UV-I 0.0 W/m 14.1 C 0.0 km/h
23.09.2020 21:40 14.2 C 93 % 1007.5 hPa 0.0 mm 1.7 km/h O-NO 65 0 min 0.0 UV-I 0.0 W/m 14.2 C 4.8 km/h
23.09.2020 21:30 14.3 C 93 % 1007.4 hPa 0.0 mm 0.7 km/h O-NO 65 0 min 0.0 UV-I 0.0 W/m 14.3 C 3.2 km/h
23.09.2020 21:20 14.4 C 93 % 1007.5 hPa 0.0 mm 0.6 km/h O-NO 65 0 min 0.0 UV-I 0.0 W/m 14.4 C 3.2 km/h
23.09.2020 21:10 14.4 C 92 % 1007.4 hPa 0.0 mm 0.6 km/h O-NO 65 0 min 0.0 UV-I 0.0 W/m 14.4 C 3.2 km/h
23.09.2020 21:00 14.7 C 92 % 1007.3 hPa 0.0 mm 0.1 km/h O-NO 65 0 min 0.0 UV-I 0.0 W/m 14.7 C 1.6 km/h
23.09.2020 20:50 14.9 C 92 % 1007.3 hPa 0.0 mm 0.9 km/h O-NO 65 0 min 0.0 UV-I 0.0 W/m 14.9 C 3.2 km/h
23.09.2020 20:40 14.9 C 91 % 1007.4 hPa 0.0 mm 0.3 km/h O-NO 65 0 min 0.0 UV-I 0.0 W/m 14.9 C 3.2 km/h
23.09.2020 20:30 15.2 C 90 % 1007.3 hPa 0.0 mm 0.1 km/h O-NO 65 0 min 0.0 UV-I 0.0 W/m 15.2 C 1.6 km/h
23.09.2020 20:20 15.4 C 89 % 1007.1 hPa 0.0 mm 2.1 km/h O-NO 65 0 min 0.0 UV-I 0.0 W/m 15.4 C 4.8 km/h
23.09.2020 20:10 15.6 C 89 % 1007.2 hPa 0.0 mm 2.1 km/h O-NO 65 0 min 0.0 UV-I 0.0 W/m 15.6 C 6.4 km/h
23.09.2020 20:00 15.8 C 88 % 1007.1 hPa 0.0 mm 0.9 km/h O-NO 63 0 min 0.0 UV-I 0.0 W/m 15.8 C 3.2 km/h
23.09.2020 19:50 16.1 C 88 % 1007.0 hPa 0.0 mm 2.6 km/h O-NO 63 0 min 0.0 UV-I 0.0 W/m 16.1 C 4.8 km/h
23.09.2020 19:40 16.3 C 87 % 1007.1 hPa 0.0 mm 2.6 km/h O-NO 63 0 min 0.0 UV-I 0.0 W/m 16.3 C 4.8 km/h
23.09.2020 19:30 16.7 C 86 % 1007.1 hPa 0.0 mm 0.8 km/h O-NO 63 0 min 0.0 UV-I 0.0 W/m 16.7 C 4.8 km/h
23.09.2020 19:20 16.9 C 84 % 1007.1 hPa 0.0 mm 0.0 km/h W-NW 293 0 min 0.0 UV-I 0.0 W/m 16.9 C 0.0 km/h
23.09.2020 19:10 17.3 C 82 % 1007.1 hPa 0.0 mm 0.0 km/h W-NW 293 0 min 0.0 UV-I 5.0 W/m 17.3 C 0.0 km/h
23.09.2020 19:00 17.7 C 81 % 1007.3 hPa 0.0 mm 0.0 km/h W-NW 293 0 min 0.0 UV-I 14.0 W/m 17.7 C 0.0 km/h
23.09.2020 18:50 18.2 C 79 % 1007.2 hPa 0.0 mm 0.0 km/h W-NW 293 0 min 0.0 UV-I 19.0 W/m 18.2 C 0.0 km/h
23.09.2020 18:40 18.9 C 77 % 1007.1 hPa 0.0 mm 0.0 km/h W-NW 293 0 min 0.0 UV-I 39.0 W/m 18.9 C 0.0 km/h
23.09.2020 18:30 19.4 C 73 % 1007.2 hPa 0.0 mm 0.5 km/h W-NW 293 10 min 0.0 UV-I 86.0 W/m 19.4 C 3.2 km/h
23.09.2020 18:20 19.2 C 73 % 1007.3 hPa 0.0 mm 1.2 km/h W-NW 293 10 min 0.0 UV-I 97.0 W/m 19.2 C 4.8 km/h
23.09.2020 18:10 19.3 C 73 % 1007.3 hPa 0.0 mm 2.3 km/h W-NW 293 0 min 0.0 UV-I 62.0 W/m 19.3 C 8.0 km/h
23.09.2020 18:00 19.7 C 72 % 1007.3 hPa 0.0 mm 3.0 km/h NW 311 0 min 0.0 UV-I 97.0 W/m 19.7 C 6.4 km/h
23.09.2020 17:50 20.0 C 69 % 1007.3 hPa 0.0 mm 4.4 km/h W-NW 303 0 min 0.0 UV-I 84.0 W/m 20.0 C 12.9 km/h
23.09.2020 17:40 20.6 C 68 % 1007.4 hPa 0.0 mm 5.1 km/h NW 305 10 min 0.5 UV-I 230.0 W/m 20.6 C 16.1 km/h
23.09.2020 17:30 20.1 C 71 % 1007.3 hPa 0.0 mm 5.1 km/h NW 323 10 min 0.5 UV-I 330.0 W/m 20.1 C 12.9 km/h
23.09.2020 17:20 20.1 C 70 % 1007.4 hPa 0.0 mm 4.2 km/h NW 304 0 min 0.0 UV-I 39.0 W/m 20.1 C 9.7 km/h
23.09.2020 17:10 20.4 C 69 % 1007.4 hPa 0.0 mm 2.8 km/h W-NW 287 0 min 0.0 UV-I 83.0 W/m 20.4 C 6.4 km/h
23.09.2020 17:00 20.3 C 70 % 1007.3 hPa 0.0 mm 1.4 km/h W 272 0 min 0.5 UV-I 120.0 W/m 20.3 C 3.2 km/h
23.09.2020 16:50 20.6 C 69 % 1007.2 hPa 0.0 mm 2.1 km/h W 271 0 min 0.8 UV-I 190.0 W/m 20.6 C 6.4 km/h
23.09.2020 16:40 20.7 C 70 % 1007.2 hPa 0.0 mm 1.3 km/h NW 319 0 min 0.9 UV-I 232.0 W/m 20.7 C 4.8 km/h
23.09.2020 16:30 20.6 C 69 % 1007.4 hPa 0.0 mm 3.2 km/h NW 319 0 min 1.0 UV-I 186.0 W/m 20.6 C 9.7 km/h
23.09.2020 16:20 20.6 C 72 % 1007.5 hPa 0.0 mm 3.7 km/h W 267 0 min 1.2 UV-I 214.0 W/m 20.6 C 8.0 km/h
23.09.2020 16:10 20.7 C 71 % 1007.5 hPa 0.0 mm 5.0 km/h W-NW 287 0 min 1.3 UV-I 230.0 W/m 20.7 C 11.3 km/h
23.09.2020 16:00 21.1 C 67 % 1007.5 hPa 0.0 mm 6.8 km/h SW 235 0 min 1.3 UV-I 142.0 W/m 21.1 C 16.1 km/h
23.09.2020 15:50 21.5 C 68 % 1007.4 hPa 0.0 mm 4.3 km/h NW 318 10 min 2.2 UV-I 559.0 W/m 21.5 C 14.5 km/h
23.09.2020 15:40 20.6 C 70 % 1007.5 hPa 0.0 mm 3.7 km/h N-NW 340 10 min 2.5 UV-I 325.0 W/m 20.6 C 9.7 km/h
23.09.2020 15:30 20.9 C 70 % 1007.7 hPa 0.0 mm 3.9 km/h W-SW 255 10 min 2.1 UV-I 392.0 W/m 20.9 C 9.7 km/h
23.09.2020 15:20 20.4 C 71 % 1007.7 hPa 0.0 mm 2.9 km/h NW 307 10 min 2.1 UV-I 383.0 W/m 20.4 C 8.0 km/h
23.09.2020 15:10 20.3 C 74 % 1007.9 hPa 0.0 mm 4.7 km/h N-NW 342 0 min 2.0 UV-I 313.0 W/m 20.3 C 11.3 km/h
23.09.2020 15:00 20.2 C 74 % 1007.9 hPa 0.0 mm 4.5 km/h NW 323 0 min 1.8 UV-I 297.0 W/m 20.2 C 11.3 km/h
23.09.2020 14:50 20.2 C 77 % 1007.9 hPa 0.0 mm 4.2 km/h W 275 0 min 2.1 UV-I 334.0 W/m 20.2 C 9.7 km/h
23.09.2020 14:40 20.1 C 76 % 1007.9 hPa 0.0 mm 4.9 km/h W-SW 249 10 min 2.3 UV-I 381.0 W/m 20.1 C 12.9 km/h
23.09.2020 14:30 19.8 C 79 % 1008.0 hPa 0.0 mm 4.8 km/h W-NW 296 0 min 2.1 UV-I 329.0 W/m 19.8 C 11.3 km/h
23.09.2020 14:20 19.7 C 79 % 1008.3 hPa 0.0 mm 5.2 km/h W 281 10 min 2.4 UV-I 360.0 W/m 19.7 C 11.3 km/h
23.09.2020 14:10 19.2 C 82 % 1008.3 hPa 0.0 mm 5.3 km/h W-NW 303 0 min 2.2 UV-I 288.0 W/m 19.2 C 11.3 km/h
23.09.2020 14:00 19.1 C 83 % 1008.4 hPa 0.0 mm 4.0 km/h SW 234 10 min 2.5 UV-I 417.0 W/m 19.1 C 11.3 km/h
23.09.2020 13:50 18.7 C 85 % 1008.4 hPa 0.0 mm 2.4 km/h W 267 0 min 2.5 UV-I 315.0 W/m 18.7 C 6.4 km/h
23.09.2020 13:40 18.7 C 89 % 1008.5 hPa 0.0 mm 2.0 km/h W 264 10 min 2.4 UV-I 559.0 W/m 18.7 C 4.8 km/h
23.09.2020 13:30 17.7 C 88 % 1008.6 hPa 0.6 mm 3.9 km/h W 264 0 min 1.2 UV-I 202.0 W/m 17.7 C 12.9 km/h
23.09.2020 13:20 18.4 C 84 % 1008.8 hPa 0.0 mm 5.2 km/h W 265 0 min 0.0 UV-I 54.0 W/m 18.4 C 14.5 km/h
23.09.2020 13:10 19.2 C 82 % 1008.6 hPa 0.0 mm 6.0 km/h NW 309 0 min 0.0 UV-I 62.0 W/m 19.2 C 12.9 km/h
23.09.2020 13:00 20.4 C 81 % 1008.5 hPa 0.0 mm 5.5 km/h NW 311 10 min 2.5 UV-I 773.0 W/m 20.4 C 12.9 km/h
23.09.2020 12:50 20.2 C 79 % 1008.5 hPa 0.0 mm 7.0 km/h W-SW 246 10 min 3.2 UV-I 795.0 W/m 20.2 C 14.5 km/h
23.09.2020 12:40 19.7 C 82 % 1008.6 hPa 0.0 mm 5.7 km/h W-SW 242 10 min 3.3 UV-I 385.0 W/m 19.7 C 12.9 km/h
23.09.2020 12:30 19.2 C 84 % 1008.6 hPa 0.0 mm 6.6 km/h SW 227 10 min 3.0 UV-I 385.0 W/m 19.2 C 12.9 km/h
23.09.2020 12:20 19.4 C 82 % 1008.8 hPa 0.0 mm 7.8 km/h W 273 0 min 1.9 UV-I 258.0 W/m 19.4 C 17.7 km/h
23.09.2020 12:10 19.1 C 85 % 1008.8 hPa 0.0 mm 5.5 km/h NW 307 0 min 2.4 UV-I 315.0 W/m 19.1 C 14.5 km/h
23.09.2020 12:00 18.5 C 87 % 1008.8 hPa 0.0 mm 4.5 km/h W 259 10 min 2.5 UV-I 550.0 W/m 18.5 C 11.3 km/h
23.09.2020 11:50 17.6 C 89 % 1008.9 hPa 0.0 mm 6.9 km/h W-SW 254 10 min 1.8 UV-I 350.0 W/m 17.6 C 14.5 km/h
23.09.2020 11:40 17.4 C 89 % 1008.9 hPa 0.0 mm 8.3 km/h SW 232 0 min 1.5 UV-I 230.0 W/m 17.4 C 16.1 km/h
23.09.2020 11:30 17.3 C 89 % 1008.9 hPa 0.0 mm 7.3 km/h W 279 0 min 1.5 UV-I 232.0 W/m 17.3 C 14.5 km/h
23.09.2020 11:20 17.3 C 90 % 1009.1 hPa 0.0 mm 5.9 km/h W-NW 290 0 min 1.5 UV-I 251.0 W/m 17.3 C 12.9 km/h
23.09.2020 11:10 17.1 C 93 % 1009.1 hPa 0.0 mm 6.0 km/h SW 229 0 min 1.6 UV-I 278.0 W/m 17.1 C 16.1 km/h
23.09.2020 11:00 16.7 C 92 % 1009.1 hPa 0.0 mm 7.1 km/h W 270 0 min 0.9 UV-I 155.0 W/m 16.7 C 14.5 km/h
23.09.2020 10:50 16.7 C 93 % 1009.2 hPa 0.2 mm 5.7 km/h W-SW 245 0 min 0.6 UV-I 111.0 W/m 16.7 C 12.9 km/h
23.09.2020 10:40 16.6 C 93 % 1009.2 hPa 0.0 mm 5.4 km/h W 265 0 min 0.7 UV-I 128.0 W/m 16.6 C 14.5 km/h
23.09.2020 10:30 16.6 C 94 % 1009.2 hPa 0.0 mm 5.8 km/h W-SW 249 0 min 0.7 UV-I 142.0 W/m 16.6 C 12.9 km/h
23.09.2020 10:20 16.3 C 94 % 1009.1 hPa 0.0 mm 5.7 km/h W 268 0 min 0.8 UV-I 144.0 W/m 16.3 C 11.3 km/h
23.09.2020 10:10 16.2 C 95 % 1009.1 hPa 0.0 mm 3.8 km/h W-SW 255 0 min 0.8 UV-I 144.0 W/m 16.2 C 11.3 km/h
23.09.2020 10:00 15.9 C 95 % 1009.1 hPa 0.0 mm 3.0 km/h W-NW 295 0 min 0.5 UV-I 107.0 W/m 15.9 C 9.7 km/h
23.09.2020 09:50 15.9 C 95 % 1009.1 hPa 0.0 mm 1.9 km/h SW 217 0 min 0.0 UV-I 79.0 W/m 15.9 C 4.8 km/h
23.09.2020 09:40 15.7 C 95 % 1009.1 hPa 0.0 mm 3.7 km/h W-SW 250 0 min 0.0 UV-I 83.0 W/m 15.7 C 9.7 km/h
23.09.2020 09:30 15.7 C 95 % 1009.0 hPa 0.6 mm 5.0 km/h W 267 0 min 0.0 UV-I 63.0 W/m 15.7 C 11.3 km/h
23.09.2020 09:20 15.7 C 95 % 1009.0 hPa 0.2 mm 3.5 km/h W 275 0 min 0.0 UV-I 65.0 W/m 15.7 C 6.4 km/h
23.09.2020 09:10 15.6 C 94 % 1008.9 hPa 0.4 mm 3.8 km/h W 269 0 min 0.0 UV-I 46.0 W/m 15.6 C 9.7 km/h
23.09.2020 09:00 15.7 C 94 % 1008.9 hPa 0.2 mm 3.1 km/h W-SW 244 0 min 0.0 UV-I 37.0 W/m 15.7 C 6.4 km/h
23.09.2020 08:50 15.7 C 94 % 1008.9 hPa 0.0 mm 2.6 km/h W-SW 246 0 min 0.0 UV-I 39.0 W/m 15.7 C 6.4 km/h
23.09.2020 08:40 15.6 C 94 % 1008.9 hPa 0.0 mm 1.8 km/h W-NW 288 0 min 0.0 UV-I 53.0 W/m 15.6 C 6.4 km/h
23.09.2020 08:30 15.5 C 94 % 1008.8 hPa 0.0 mm 2.2 km/h W-NW 288 0 min 0.0 UV-I 33.0 W/m 15.5 C 4.8 km/h
23.09.2020 08:20 15.5 C 94 % 1008.9 hPa 0.0 mm 2.0 km/h W-NW 288 0 min 0.0 UV-I 14.0 W/m 15.5 C 4.8 km/h
23.09.2020 08:10 15.5 C 94 % 1008.7 hPa 0.0 mm 0.1 km/h W-NW 288 0 min 0.0 UV-I 16.0 W/m 15.5 C 3.2 km/h
23.09.2020 08:00 15.4 C 94 % 1008.7 hPa 0.0 mm 2.2 km/h W-NW 288 0 min 0.0 UV-I 12.0 W/m 15.4 C 6.4 km/h
23.09.2020 07:50 15.3 C 94 % 1008.6 hPa 0.0 mm 0.7 km/h SW 218 0 min 0.0 UV-I 9.0 W/m 15.3 C 4.8 km/h
23.09.2020 07:40 15.4 C 95 % 1008.6 hPa 0.0 mm 0.5 km/h SW 214 0 min 0.0 UV-I 11.0 W/m 15.4 C 3.2 km/h
23.09.2020 07:30 15.4 C 94 % 1008.6 hPa 0.0 mm 0.0 km/h SW 214 0 min 0.0 UV-I 0.0 W/m 15.4 C 0.0 km/h
23.09.2020 07:20 15.4 C 94 % 1008.6 hPa 0.0 mm 0.0 km/h SW 214 0 min 0.0 UV-I 0.0 W/m 15.4 C 0.0 km/h
23.09.2020 07:10 15.5 C 94 % 1008.5 hPa 0.0 mm 0.0 km/h SW 214 0 min 0.0 UV-I 0.0 W/m 15.5 C 0.0 km/h
23.09.2020 07:00 15.4 C 94 % 1008.5 hPa 0.0 mm 1.4 km/h SW 214 0 min 0.0 UV-I 0.0 W/m 15.4 C 3.2 km/h
23.09.2020 06:50 15.4 C 95 % 1008.5 hPa 0.0 mm 2.5 km/h SW 214 0 min 0.0 UV-I 0.0 W/m 15.4 C 4.8 km/h
23.09.2020 06:40 15.3 C 95 % 1008.5 hPa 0.0 mm 2.0 km/h SW 214 0 min 0.0 UV-I 0.0 W/m 15.3 C 4.8 km/h
23.09.2020 06:30 15.3 C 95 % 1008.5 hPa 0.0 mm 0.0 km/h W-SW 242 0 min 0.0 UV-I 0.0 W/m 15.3 C 0.0 km/h
23.09.2020 06:20 15.4 C 95 % 1008.5 hPa 0.0 mm 0.1 km/h W-SW 242 0 min 0.0 UV-I 0.0 W/m 15.4 C 3.2 km/h
23.09.2020 06:10 15.4 C 95 % 1008.5 hPa 0.0 mm 0.1 km/h W-SW 242 0 min 0.0 UV-I 0.0 W/m 15.4 C 1.6 km/h
23.09.2020 06:00 15.4 C 95 % 1008.6 hPa 0.0 mm 0.1 km/h W-SW 242 0 min 0.0 UV-I 0.0 W/m 15.4 C 1.6 km/h
_ Min-Zeit 02:30 16:00 19:50 - 06:30 - - - - - 02:30 06:30
Minimum _ 12.7 C 67 % 1007.0 hPa - 0.0 km/h - - - - - 12.7 C 0.0 km/h
_ Max-Zeit 15:50 02:40 10:30 09:30 11:40 - - 11:50 12:40 12:50 15:50 12:20
Maximum _ 21.5 C 96 % 1009.2 hPa 0.6 mm 8.3 km/h
SW
- - 10 min 3.3 UV-I 795.0 W/m 21.5 C 17.7 km/h
W-NW
Durchschnitt _ 16.2 C 89 % 1007.9 hPa #2.4 mm 2.1 km/h W - #0 min. 0.0 UV-I 0.0 W/m 16.2 C 5.7 km/h